createdAt,value
2022-11-04T00:02:19.663Z,98861.34
2022-11-04T00:05:08.797Z,98858.84
2022-11-04T00:08:14.071Z,98863.09
2022-11-04T00:11:21.227Z,98850.28
2022-11-04T00:14:10.333Z,98843.41
2022-11-04T00:17:16.393Z,98835.56
2022-11-04T00:20:22.529Z,98823.53
2022-11-04T00:23:28.762Z,98827.06
2022-11-04T00:26:35.986Z,98830.63
2022-11-04T00:29:24.553Z,98823.03
2022-11-04T00:32:30.689Z,98817.97
2022-11-04T00:35:19.316Z,98817.97
2022-11-04T00:38:07.916Z,98841.16
2022-11-04T00:40:56.478Z,98850.69
2022-11-04T00:43:46.236Z,98848.19
2022-11-04T00:46:34.953Z,98847.47
2022-11-04T00:49:23.340Z,98852.78
2022-11-04T00:52:11.715Z,98854.41
2022-11-04T00:55:00.066Z,98859.69
2022-11-04T00:57:48.411Z,98872.84
2022-11-04T01:00:38.972Z,98866.13
2022-11-04T01:03:27.774Z,98877.59
2022-11-04T01:06:16.118Z,98878.72
2022-11-04T01:09:08.182Z,98880.50
2022-11-04T01:11:56.547Z,98882.34
2022-11-04T01:14:44.925Z,98889.28
2022-11-04T01:17:34.600Z,98879.84
2022-11-04T01:20:23.124Z,98883.47
2022-11-04T01:23:11.487Z,98904.41
2022-11-04T01:25:59.841Z,98887.13
2022-11-04T01:28:48.254Z,98898.41
2022-11-04T01:31:36.648Z,98894.78
2022-11-04T01:34:26.441Z,98897.38
2022-11-04T01:37:14.812Z,98900.69
2022-11-04T01:40:03.165Z,98899.00
2022-11-04T01:42:51.533Z,98901.50
2022-11-04T01:45:39.877Z,98904.09
2022-11-04T01:48:30.583Z,98891.25
2022-11-04T01:51:20.378Z,98898.19
2022-11-04T01:54:09.012Z,98907.81
2022-11-04T01:56:57.396Z,98907.81
2022-11-04T01:59:45.792Z,98914.84
2022-11-04T02:02:34.267Z,98912.34
2022-11-04T02:05:22.761Z,98896.00
2022-11-04T02:08:12.476Z,98900.56
2022-11-04T02:11:02.314Z,98900.56
2022-11-04T02:13:49.747Z,98893.81
2022-11-04T02:16:41.021Z,98883.47
2022-11-04T02:19:49.207Z,98903.25
2022-11-04T02:23:15.732Z,98906.75
2022-11-04T02:26:51.033Z,98908.81
2022-11-04T02:30:08.113Z,98919.06
2022-11-04T02:33:15.077Z,98928.47
2022-11-04T02:36:05.126Z,98928.38
2022-11-04T02:38:55.450Z,98930.97
2022-11-04T02:41:54.623Z,98935.91
2022-11-04T02:44:46.973Z,98928.91
2022-11-04T02:47:35.310Z,98927.16
2022-11-04T02:50:28.015Z,98916.09
2022-11-04T02:53:18.351Z,98916.91
2022-11-04T02:56:07.168Z,98923.94
2022-11-04T02:58:58.396Z,98937.59
2022-11-04T03:01:48.245Z,98931.69
2022-11-04T03:04:39.528Z,98940.38
2022-11-04T03:07:30.399Z,98942.25
2022-11-04T03:10:20.883Z,98958.69
2022-11-04T03:13:14.485Z,98965.09
2022-11-04T03:16:05.158Z,98946.44
2022-11-04T03:19:01.980Z,98958.53
2022-11-04T03:22:00.067Z,98976.44
2022-11-04T03:24:48.885Z,98957.81
2022-11-04T03:27:43.572Z,98980.34
2022-11-04T03:30:36.314Z,98989.34
2022-11-04T03:33:29.477Z,98975.78
2022-11-04T03:36:19.311Z,98977.47
2022-11-04T03:39:07.710Z,98984.28
2022-11-04T03:41:57.655Z,98982.81
2022-11-04T03:44:46.005Z,98992.53
2022-11-04T03:47:34.339Z,98992.09
2022-11-04T03:50:27.435Z,98980.28
2022-11-04T03:53:18.554Z,98962.38
2022-11-04T03:56:25.114Z,98967.00
2022-11-04T03:59:26.374Z,98961.31
2022-11-04T04:02:18.123Z,98948.03
2022-11-04T04:05:14.537Z,98955.78
2022-11-04T04:08:18.610Z,98973.22
2022-11-04T04:11:10.517Z,98966.41
2022-11-04T04:14:03.259Z,98980.25
2022-11-04T04:16:51.599Z,98975.22
2022-11-04T04:19:39.989Z,98972.03
2022-11-04T04:22:30.074Z,98979.22
2022-11-04T04:25:37.503Z,98985.69
2022-11-04T04:28:25.846Z,98993.81
2022-11-04T04:31:34.244Z,98978.50
2022-11-04T04:34:24.252Z,98960.72
2022-11-04T04:37:15.871Z,98959.03
2022-11-04T04:40:36.695Z,98950.41
2022-11-04T04:43:44.156Z,98955.75
2022-11-04T04:46:32.616Z,98964.50
2022-11-04T04:49:22.104Z,98961.91
2022-11-04T04:52:10.518Z,98961.09
2022-11-04T04:54:58.946Z,98955.91
2022-11-04T04:57:47.362Z,98946.91
2022-11-04T05:00:37.068Z,98956.75
2022-11-04T05:03:26.001Z,98958.41
2022-11-04T05:06:14.441Z,98954.28
2022-11-04T05:09:02.884Z,98949.41
2022-11-04T05:11:51.338Z,98950.22
2022-11-04T05:14:39.715Z,98953.63
2022-11-04T05:17:29.446Z,98951.03
2022-11-04T05:20:18.055Z,98947.72
2022-11-04T05:23:06.443Z,98942.56
2022-11-04T05:25:54.808Z,98942.56
2022-11-04T05:28:43.323Z,98945.44
2022-11-04T05:31:31.775Z,98943.13
2022-11-04T05:34:21.489Z,98957.88
2022-11-04T05:37:09.866Z,98958.16
2022-11-04T05:39:58.230Z,98947.91
2022-11-04T05:42:46.642Z,98940.16
2022-11-04T05:45:35.082Z,98936.97
2022-11-04T05:48:23.518Z,98926.06
2022-11-04T05:51:15.378Z,98935.94
2022-11-04T05:54:03.777Z,98946.25
2022-11-04T05:56:52.218Z,98940.53
2022-11-04T05:59:40.674Z,98951.13
2022-11-04T06:02:29.215Z,98947.06
2022-11-04T06:05:17.863Z,98946.19
2022-11-04T06:08:08.066Z,98943.31
2022-11-04T06:10:56.722Z,98941.22
2022-11-04T06:13:45.137Z,98945.00
2022-11-04T06:16:33.513Z,98952.25
2022-11-04T06:19:21.982Z,98957.66
2022-11-04T06:22:20.983Z,98964.16
2022-11-04T06:25:14.036Z,98980.91
2022-11-04T06:28:02.460Z,98970.38
2022-11-04T06:30:50.899Z,98971.88
2022-11-04T06:33:39.377Z,98972.69
2022-11-04T06:36:27.774Z,98978.59
2022-11-04T06:39:16.167Z,98981.09
2022-11-04T06:42:06.322Z,98978.50
2022-11-04T06:44:54.708Z,98975.72
2022-11-04T06:47:43.122Z,98976.19
2022-11-04T06:50:31.741Z,98972.41
2022-11-04T06:53:20.215Z,98975.72
2022-11-04T06:56:10.293Z,98960.03
2022-11-04T06:59:00.034Z,98970.81
2022-11-04T07:01:50.098Z,98968.69
2022-11-04T07:04:18.343Z,98952.81
2022-11-04T07:06:46.452Z,98955.84
2022-11-04T07:09:15.287Z,98958.97
2022-11-04T07:11:44.124Z,98971.78
2022-11-04T07:14:13.675Z,98967.22
2022-11-04T07:16:41.984Z,98967.06
2022-11-04T07:19:10.249Z,98977.19
2022-11-04T07:21:38.382Z,98983.91
2022-11-04T07:24:07.691Z,98984.66
2022-11-04T07:26:35.802Z,98982.63
2022-11-04T07:29:05.705Z,98996.25
2022-11-04T07:31:35.302Z,99001.53
2022-11-04T07:34:03.467Z,99005.97
2022-11-04T07:36:31.591Z,99005.44
2022-11-04T07:38:59.739Z,98998.53
2022-11-04T07:41:27.879Z,99003.56
2022-11-04T07:43:56.046Z,99007.81
2022-11-04T07:46:24.156Z,99003.09
2022-11-04T07:48:53.711Z,99002.88
2022-11-04T07:51:22.052Z,99005.47
2022-11-04T07:53:50.582Z,99003.75
2022-11-04T07:56:19.022Z,99004.56
2022-11-04T07:58:47.159Z,98993.19
2022-11-04T08:01:17.088Z,98992.16
2022-11-04T08:03:45.376Z,98990.22
2022-11-04T08:06:16.108Z,98983.72
2022-11-04T08:08:44.498Z,98982.28
2022-11-04T08:11:17.754Z,98986.13
2022-11-04T08:13:46.317Z,98980.44
2022-11-04T08:16:16.297Z,98982.13
2022-11-04T08:18:44.526Z,98969.91
2022-11-04T08:21:14.150Z,98977.75
2022-11-04T08:23:42.291Z,98979.53
2022-11-04T08:26:11.248Z,98976.00
2022-11-04T08:28:39.581Z,98979.44
2022-11-04T08:31:09.171Z,98982.53
2022-11-04T08:33:37.336Z,98973.44
2022-11-04T08:36:09.072Z,98960.28
2022-11-04T08:38:38.778Z,98962.38
2022-11-04T08:41:08.047Z,98967.53
2022-11-04T08:43:36.558Z,98967.44
2022-11-04T08:46:06.582Z,98959.56
2022-11-04T08:48:37.482Z,98955.25
2022-11-04T08:51:06.216Z,98946.16
2022-11-04T08:53:34.320Z,98954.84
2022-11-04T08:56:11.750Z,98958.16
2022-11-04T08:58:39.931Z,98962.19
2022-11-04T09:01:08.267Z,98983.53
2022-11-04T09:03:38.428Z,98972.00
2022-11-04T09:06:07.249Z,98974.50
2022-11-04T09:08:37.910Z,98979.50
2022-11-04T09:11:09.216Z,98977.91
2022-11-04T09:13:39.986Z,98977.59
2022-11-04T09:16:09.220Z,98980.94
2022-11-04T09:18:37.401Z,98985.09
2022-11-04T09:21:06.684Z,98989.84
2022-11-04T09:23:34.964Z,98987.06
2022-11-04T09:26:06.470Z,98977.00
2022-11-04T09:28:35.903Z,98981.03
2022-11-04T09:31:07.447Z,98981.66
2022-11-04T09:33:35.599Z,98991.47
2022-11-04T09:36:03.715Z,98994.78
2022-11-04T09:38:31.989Z,98999.25
2022-11-04T09:41:00.529Z,98994.06
2022-11-04T09:43:42.712Z,98999.88
2022-11-04T09:46:11.938Z,98999.56
2022-11-04T09:48:42.836Z,99007.53
2022-11-04T09:51:26.158Z,99015.81
2022-11-04T09:54:01.231Z,99033.22
2022-11-04T09:56:31.421Z,99029.50
2022-11-04T09:59:00.929Z,99025.28
2022-11-04T10:01:33.107Z,99030.94
2022-11-04T10:04:22.002Z,99025.97
2022-11-04T10:07:03.819Z,99033.31
2022-11-04T10:09:41.050Z,99030.31
2022-11-04T10:12:21.827Z,99025.75
2022-11-04T10:15:08.969Z,99022.31
2022-11-04T10:17:55.371Z,99023.16
2022-11-04T10:20:33.734Z,99017.13
2022-11-04T10:23:08.678Z,99012.91
2022-11-04T10:25:42.888Z,99013.41
2022-11-04T10:28:11.901Z,99014.38
2022-11-04T10:30:41.439Z,99012.59
2022-11-04T10:33:12.746Z,99002.03
2022-11-04T10:35:43.626Z,98997.88
2022-11-04T10:38:20.008Z,99002.13
2022-11-04T10:40:49.981Z,99004.31
2022-11-04T10:43:21.689Z,99002.53
2022-11-04T10:46:05.200Z,98998.16
2022-11-04T10:48:38.406Z,98995.47
2022-11-04T10:51:06.698Z,98987.47
2022-11-04T10:53:36.086Z,98981.66
2022-11-04T10:56:07.727Z,98982.19
2022-11-04T10:58:37.744Z,98981.44
2022-11-04T11:01:27.094Z,98981.56
2022-11-04T11:03:55.560Z,98975.22
2022-11-04T11:06:27.958Z,98977.47
2022-11-04T11:08:58.504Z,98983.44
2022-11-04T11:11:47.285Z,98982.81
2022-11-04T11:14:20.723Z,98982.53
2022-11-04T11:16:50.252Z,98982.00
2022-11-04T11:19:20.061Z,98984.13
2022-11-04T11:21:49.869Z,98987.00
2022-11-04T11:24:22.361Z,98988.94
2022-11-04T11:26:51.499Z,98986.66
2022-11-04T11:29:25.721Z,98971.22
2022-11-04T11:31:55.460Z,98975.63
2022-11-04T11:34:27.245Z,98972.09
2022-11-04T11:36:55.863Z,98970.19
2022-11-04T11:39:25.253Z,98967.84
2022-11-04T11:41:57.301Z,98960.75
2022-11-04T11:44:31.533Z,98958.97
2022-11-04T11:47:03.011Z,98965.25
2022-11-04T11:49:33.881Z,98961.00
2022-11-04T11:52:32.824Z,98964.06
2022-11-04T11:55:07.399Z,98960.28
2022-11-04T11:57:44.726Z,98954.38
2022-11-04T12:03:13.274Z,98943.94
2022-11-04T12:11:41.241Z,98935.66
2022-11-04T12:14:15.612Z,98947.19
2022-11-04T12:16:49.390Z,98945.03
2022-11-04T12:19:32.470Z,98939.06
2022-11-04T12:22:04.908Z,98937.28
2022-11-04T12:24:41.126Z,98934.97
2022-11-04T12:27:14.096Z,98939.03
2022-11-04T12:29:56.908Z,98939.88
2022-11-04T12:32:31.884Z,98940.22
2022-11-04T12:35:12.707Z,98941.00
2022-11-04T12:37:47.831Z,98946.31
2022-11-04T12:40:21.341Z,98953.19
2022-11-04T12:43:05.176Z,98945.13
2022-11-04T12:45:43.771Z,98958.09
2022-11-04T12:48:13.567Z,98950.84
2022-11-04T12:50:55.732Z,98957.25
2022-11-04T12:53:53.616Z,98954.16
2022-11-04T12:56:23.458Z,98957.09
2022-11-04T12:59:30.564Z,98959.56
2022-11-04T13:02:00.605Z,98957.13
2022-11-04T13:04:31.942Z,98966.09
2022-11-04T13:07:03.950Z,98970.69
2022-11-04T13:09:36.045Z,98978.34
2022-11-04T13:12:06.866Z,98971.16
2022-11-04T13:14:47.139Z,98974.91
2022-11-04T13:17:18.744Z,98981.28
2022-11-04T13:19:48.498Z,98991.66
2022-11-04T13:22:21.638Z,98995.19
2022-11-04T13:24:52.383Z,98997.38
2022-11-04T13:27:23.133Z,98984.13
2022-11-04T13:29:52.142Z,98997.94
2022-11-04T13:32:26.153Z,99000.41
2022-11-04T13:34:58.804Z,99000.22
2022-11-04T13:37:30.357Z,99002.56
2022-11-04T13:40:00.229Z,99009.31
2022-11-04T13:43:41.682Z,99012.63
2022-11-04T13:46:24.617Z,99012.22
2022-11-04T13:49:02.426Z,99021.78
2022-11-04T13:51:39.313Z,99020.41
2022-11-04T13:54:14.070Z,99022.31
2022-11-04T13:56:42.241Z,99025.94
2022-11-04T13:59:21.058Z,99023.94
2022-11-04T14:01:49.356Z,99031.50
2022-11-04T14:04:28.643Z,99036.72
2022-11-04T14:06:59.920Z,99034.06
2022-11-04T14:09:50.574Z,99030.09
2022-11-04T14:12:35.469Z,99028.78
2022-11-04T14:15:13.310Z,99026.78
2022-11-04T14:18:01.496Z,99028.94
2022-11-04T14:20:32.988Z,99033.16
2022-11-04T14:23:02.227Z,99025.28
2022-11-04T14:25:35.239Z,99036.78
2022-11-04T14:28:16.908Z,99038.88
2022-11-04T14:30:49.513Z,99034.59
2022-11-04T14:33:35.135Z,99026.72
2022-11-04T14:36:40.481Z,99035.16
2022-11-04T14:39:22.050Z,99047.69
2022-11-04T14:41:57.160Z,99041.81
2022-11-04T14:44:35.577Z,99042.84
2022-11-04T14:47:15.011Z,99050.44
2022-11-04T14:49:45.724Z,99046.63
2022-11-04T14:52:21.817Z,99058.34
2022-11-04T14:54:50.385Z,99059.75
2022-11-04T14:57:21.980Z,99068.81
2022-11-04T14:59:52.159Z,99066.09
2022-11-04T15:02:22.283Z,99071.59
2022-11-04T15:04:57.876Z,99077.28
2022-11-04T15:07:35.316Z,99073.94
2022-11-04T15:10:16.063Z,99072.25
2022-11-04T15:12:54.533Z,99069.81
2022-11-04T15:15:35.966Z,99067.00
2022-11-04T15:18:07.889Z,99080.72
2022-11-04T15:20:41.008Z,99086.78
2022-11-04T15:23:13.196Z,99084.91
2022-11-04T15:25:47.260Z,99090.91
2022-11-04T15:28:21.915Z,99080.59
2022-11-04T15:31:09.340Z,99096.75
2022-11-04T15:33:42.688Z,99102.56
2022-11-04T15:36:14.889Z,99105.66
2022-11-04T15:38:46.525Z,99112.09
2022-11-04T15:41:38.211Z,99108.16
2022-11-04T15:44:15.928Z,99104.59
2022-11-04T15:46:50.040Z,99112.97
2022-11-04T15:49:26.240Z,99115.16
2022-11-04T15:51:56.391Z,99124.97
2022-11-04T15:54:26.983Z,99132.84
2022-11-04T15:56:56.072Z,99131.94
2022-11-04T15:59:28.025Z,99130.91
2022-11-04T16:01:56.279Z,99132.44
2022-11-04T16:04:26.436Z,99137.53
2022-11-04T16:07:07.583Z,99127.91
2022-11-04T16:09:47.718Z,99145.00
2022-11-04T16:12:17.245Z,99144.91
2022-11-04T16:14:50.895Z,99152.69
2022-11-04T16:17:19.273Z,99149.75
2022-11-04T16:19:48.735Z,99145.91
2022-11-04T16:22:22.056Z,99161.00
2022-11-04T16:24:51.571Z,99157.00
2022-11-04T16:27:21.486Z,99165.72
2022-11-04T16:29:59.672Z,99161.34
2022-11-04T16:32:28.778Z,99160.25
2022-11-04T16:34:59.959Z,99161.91
2022-11-04T16:37:28.268Z,99170.50
2022-11-04T16:39:56.317Z,99165.81
2022-11-04T16:42:24.407Z,99169.81
2022-11-04T16:44:57.846Z,99173.81
2022-11-04T16:47:28.230Z,99176.16
2022-11-04T16:49:56.755Z,99182.53
2022-11-04T16:52:26.446Z,99182.72
2022-11-04T16:54:56.208Z,99194.19
2022-11-04T16:57:25.263Z,99177.38
2022-11-04T16:59:55.906Z,99199.72
2022-11-04T17:02:27.694Z,99197.06
2022-11-04T17:04:56.661Z,99197.72
2022-11-04T17:07:40.521Z,99207.84
2022-11-04T17:10:16.827Z,99201.56
2022-11-04T17:12:45.040Z,99200.00
2022-11-04T17:15:14.907Z,99210.44
2022-11-04T17:17:43.110Z,99209.53
2022-11-04T17:20:13.958Z,99221.53
2022-11-04T17:22:43.007Z,99219.69
2022-11-04T17:25:17.149Z,99223.91
2022-11-04T17:27:45.417Z,99237.78
2022-11-04T17:30:16.344Z,99236.13
2022-11-04T17:32:44.918Z,99235.56
2022-11-04T17:35:13.165Z,99249.81
2022-11-04T17:37:41.501Z,99246.84
2022-11-04T17:40:13.336Z,99240.41
2022-11-04T17:42:59.451Z,99250.28
2022-11-04T17:45:29.024Z,99256.81
2022-11-04T17:47:57.172Z,99251.19
2022-11-04T17:50:25.315Z,99259.28
2022-11-04T17:52:53.468Z,99255.53
2022-11-04T17:55:27.164Z,99259.94
2022-11-04T17:57:55.740Z,99263.44
2022-11-04T18:00:29.402Z,99272.88
2022-11-04T18:02:58.875Z,99271.19
2022-11-04T18:05:27.058Z,99281.38
2022-11-04T18:07:56.484Z,99281.94
2022-11-04T18:10:24.635Z,99282.56
2022-11-04T18:12:52.873Z,99286.56
2022-11-04T18:15:21.080Z,99296.63
2022-11-04T18:17:52.549Z,99288.78
2022-11-04T18:20:22.317Z,99294.59
2022-11-04T18:22:50.481Z,99299.75
2022-11-04T18:25:18.749Z,99305.03
2022-11-04T18:27:48.741Z,99306.88
2022-11-04T18:30:17.021Z,99305.03
2022-11-04T18:32:45.122Z,99311.03
2022-11-04T18:35:13.235Z,99315.38
2022-11-04T18:37:47.112Z,99315.53
2022-11-04T18:40:16.325Z,99311.66
2022-11-04T18:42:44.456Z,99313.69
2022-11-04T18:45:12.791Z,99310.28
2022-11-04T18:47:40.965Z,99311.19
2022-11-04T18:50:10.304Z,99311.25
2022-11-04T18:52:38.387Z,99311.47
2022-11-04T18:55:10.426Z,99320.22
2022-11-04T18:57:38.544Z,99328.06
2022-11-04T19:00:12.889Z,99341.31
2022-11-04T19:02:44.260Z,99343.16
2022-11-04T19:05:12.413Z,99337.97
2022-11-04T19:07:41.904Z,99340.50
2022-11-04T19:10:12.005Z,99343.00
2022-11-04T19:12:57.686Z,99344.75
2022-11-04T19:15:26.109Z,99347.34
2022-11-04T19:17:54.227Z,99346.47
2022-11-04T19:20:23.559Z,99350.00
2022-11-04T19:22:51.737Z,99351.91
2022-11-04T19:25:21.372Z,99361.63
2022-11-04T19:28:11.625Z,99367.16
2022-11-04T19:30:38.306Z,99371.19
2022-11-04T19:33:06.476Z,99369.03
2022-11-04T19:35:34.615Z,99376.00
2022-11-04T19:38:02.740Z,99388.19
2022-11-04T19:40:32.192Z,99394.19
2022-11-04T19:43:11.632Z,99405.44
2022-11-04T19:45:41.521Z,99402.03
2022-11-04T19:48:10.014Z,99398.63
2022-11-04T19:50:41.806Z,99408.19
2022-11-04T19:53:09.967Z,99401.19
2022-11-04T19:55:39.471Z,99412.34
2022-11-04T19:58:08.229Z,99408.78
2022-11-04T20:00:36.735Z,99418.84
2022-11-04T20:03:05.000Z,99423.69
2022-11-04T20:05:37.746Z,99430.16
2022-11-04T20:08:06.771Z,99430.03
2022-11-04T20:10:37.192Z,99429.84
2022-11-04T20:13:24.493Z,99437.44
2022-11-04T20:15:52.693Z,99433.78
2022-11-04T20:18:21.146Z,99436.19
2022-11-04T20:20:49.255Z,99441.34
2022-11-04T20:23:17.413Z,99441.53
2022-11-04T20:25:45.545Z,99442.34
2022-11-04T20:28:14.970Z,99448.19
2022-11-04T20:30:43.149Z,99462.44
2022-11-04T20:33:11.310Z,99453.34
2022-11-04T20:35:39.408Z,99457.50
2022-11-04T20:38:07.911Z,99452.19
2022-11-04T20:40:36.497Z,99459.75
2022-11-04T20:43:04.941Z,99463.66
2022-11-04T20:45:34.583Z,99470.13
2022-11-04T20:48:02.718Z,99476.72
2022-11-04T20:50:30.874Z,99489.59
2022-11-04T20:52:58.974Z,99484.16
2022-11-04T20:55:28.058Z,99494.22
2022-11-04T20:57:56.875Z,99487.09
2022-11-04T21:00:25.037Z,99489.44
2022-11-04T21:02:54.669Z,99485.88
2022-11-04T21:05:41.547Z,99489.91
2022-11-04T21:08:29.970Z,99499.28
2022-11-04T21:11:18.366Z,99494.09
2022-11-04T21:14:07.137Z,99494.19
2022-11-04T21:16:55.488Z,99503.59
2022-11-04T21:19:45.315Z,99507.94
2022-11-04T21:22:33.744Z,99510.53
2022-11-04T21:25:23.106Z,99513.94
2022-11-04T21:28:12.098Z,99523.47
2022-11-04T21:31:04.483Z,99514.81
2022-11-04T21:33:53.050Z,99516.44
2022-11-04T21:36:42.952Z,99524.97
2022-11-04T21:39:31.491Z,99523.13
2022-11-04T21:42:19.958Z,99526.47
2022-11-04T21:45:08.920Z,99535.88
2022-11-04T21:47:57.285Z,99531.63
2022-11-04T21:50:45.712Z,99531.78
2022-11-04T21:53:35.607Z,99533.63
2022-11-04T21:56:25.378Z,99539.75
2022-11-04T21:59:18.144Z,99542.31
2022-11-04T22:02:07.081Z,99545.84
2022-11-04T22:04:55.617Z,99544.09
2022-11-04T22:08:01.801Z,99545.84
2022-11-04T22:10:51.541Z,99555.78
2022-11-04T22:13:39.897Z,99559.38
2022-11-04T22:16:29.534Z,99563.22
2022-11-04T22:19:17.926Z,99565.97
2022-11-04T22:22:06.292Z,99560.16
2022-11-04T22:25:03.204Z,99556.72
2022-11-04T22:27:52.908Z,99560.88
2022-11-04T22:30:41.322Z,99556.72
2022-11-04T22:33:31.846Z,99561.88
2022-11-04T22:36:20.566Z,99563.47
2022-11-04T22:39:16.072Z,99568.63
2022-11-04T22:42:05.760Z,99569.38
2022-11-04T22:44:55.531Z,99574.56
2022-11-04T22:47:43.959Z,99567.56
2022-11-04T22:50:32.373Z,99579.59
2022-11-04T22:53:20.745Z,99577.00
2022-11-04T22:56:10.723Z,99575.22
2022-11-04T22:59:00.252Z,99586.41
2022-11-04T23:01:50.151Z,99583.06
2022-11-04T23:04:38.735Z,99584.09
2022-11-04T23:07:27.184Z,99586.75
2022-11-04T23:10:33.495Z,99595.44
2022-11-04T23:13:39.440Z,99587.09
2022-11-04T23:16:45.680Z,99592.41
2022-11-04T23:19:38.897Z,99584.66
2022-11-04T23:22:44.907Z,99591.91
2022-11-04T23:25:33.348Z,99594.00
2022-11-04T23:28:50.493Z,99605.44
2022-11-04T23:31:38.924Z,99603.78
2022-11-04T23:34:44.814Z,99605.03
2022-11-04T23:37:34.568Z,99601.41
2022-11-04T23:40:22.949Z,99602.75
2022-11-04T23:43:11.671Z,99599.53
2022-11-04T23:46:17.689Z,99608.28
2022-11-04T23:49:23.495Z,99611.31
2022-11-04T23:52:37.754Z,99624.59
2022-11-04T23:55:44.991Z,99620.63
2022-11-04T23:58:50.711Z,99630.44
